Monday, July 23, 2018, 11:32 AM EDT
Back to Local

KBTV, Burlington International

Location: South Burlington, VT, United States Lat: 44.467
Local Time: 11:32 AM EDT (15:32 GMT) Lon: -73.15
Time Zone: US/Eastern Elev: 334 ft

Show me the last for .
Show Decoded

2018-07-23 10:54 METAR KBTV 231454Z 20004KT 10SM SCT036 BKN050 BKN110 28/21 A3014 RMK AO2 SLP204
                 MTNS OBSCD E-S 60000 T02780211 51006 =
2018-07-23 09:54 METAR KBTV 231354Z 18004KT 10SM SCT050 BKN110 26/21 A3014 RMK AO2 RAB29E40
                 SLP203 P0000 T02610211 =
2018-07-23 08:54 METAR KBTV 231254Z 18003KT 10SM BKN046 BKN050 BKN110 26/21 A3013 RMK AO2 SLP201
                 FG OBSCG MTNS DSNT E-S T02610206 =
2018-07-23 07:54 METAR KBTV 231154Z 18003KT 10SM BKN110 BKN150 24/21 A3012 RMK AO2 SLP198 ACSL
                 ALQDS FG OBSCG MTNS DSNT E-S 60000 70004 T02440206 10244 20222 51014 =
2018-07-23 06:54 METAR KBTV 231054Z 18006KT 10SM SCT150 BKN200 23/21 A3011 RMK AO2 SLP194
                 T02280206 =
2018-07-23 05:54 METAR KBTV 230954Z 18003KT 10SM FEW034 BKN150 22/20 A3010 RMK AO2 SLP190
                 T02220200 =
2018-07-23 04:54 METAR KBTV 230854Z 11005KT 10SM CLR 23/20 A3008 RMK AO2 SLP183 60000 T02280200
                 55002 =
2018-07-23 03:54 METAR KBTV 230754Z 15006KT 10SM CLR 23/20 A3007 RMK AO2 SLP179 T02280200 =
2018-07-23 02:54 METAR KBTV 230654Z 12004KT 10SM BKN040 BKN050 22/20 A3008 RMK AO2 RAE12 SLP185
                 P0000 T02220200 =
2018-07-23 01:54 METAR KBTV 230554Z 14007KT 10SM -RA FEW048 FEW055 24/19 A3008 RMK AO2 RAB50
                 SLP186 P0000 60000 T02390194 10261 20239 58003 =
2018-07-23 00:54 METAR KBTV 230454Z 14006KT 10SM SCT065 24/19 A3009 RMK AO2 SLP188 T02390189
                 402830189 =
2018-07-22 23:54 METAR KBTV 230354Z 14008KT 10SM FEW060 24/19 A3009 RMK AO2 SLP188 LAST T02390189
                 =
2018-07-22 22:54 METAR KBTV 230254Z 14007KT 10SM FEW060 24/19 A3009 RMK AO2 SLP189 T02390189
                 51019 =
2018-07-22 21:54 METAR KBTV 230154Z 14011KT 10SM FEW060 24/19 A3008 RMK AO2 SLP184 T02440189 =
2018-07-22 20:54 METAR KBTV 230054Z COR 11008KT 10SM FEW055 FEW070 SCT090 25/19 A3006 RMK AO2
                 SLP177 T02500189 =
2018-07-22 19:54 METAR KBTV 222354Z 11008KT 10SM BKN047 BKN055 BKN200 26/19 A3003 RMK AO2 SLP169
                 T02610189 10283 20228 53012 =
2018-07-22 18:54 METAR KBTV 222254Z 13012KT 10SM BKN047 BKN200 27/18 A3002 RMK AO2 SLP163
                 T02720183 =
2018-07-22 17:54 METAR KBTV 222154Z 14010G21KT 10SM BKN048 BKN200 27/18 A3000 RMK AO2 SLP157
                 T02720183 =
2018-07-22 16:54 METAR KBTV 222054Z 14016G21KT 10SM BKN055 BKN200 27/18 A3000 RMK AO2 SLP157
                 T02720178 55009 =
2018-07-22 15:54 METAR KBTV 221954Z 13015G23KT 10SM SCT036 BKN200 27/18 A2999 RMK AO2 SLP156
                 T02720178 =
2018-07-22 14:54 METAR KBTV 221854Z 13018G24KT 10SM BKN041 BKN200 26/18 A3001 RMK AO2 SLP162
                 T02610178 =
2018-07-22 13:54 METAR KBTV 221754Z 11011G18KT 10SM OVC030 23/17 A3003 RMK AO2 SLP166 60004
                 T02280167 10233 20189 58001 =
2018-07-22 13:44 METAR KBTV 221744Z 12011KT 10SM OVC030 23/17 A3003 RMK AO2 T02280172 =
2018-07-22 12:54 METAR KBTV 221654Z 10008KT 10SM BKN029 BKN037 BKN100 23/17 A3002 RMK AO2 RAE07
                 SLP165 P0000 T02280172 =
2018-07-22 11:54 METAR KBTV 221554Z 11004KT 10SM -RA FEW034 BKN080 BKN095 19/16 A3004 RMK AO2
                 SLP170 P0004 T01940161 =

Support USWX by starting your Amazon purchase here.